createdAt,value
2017-10-05T00:02:10.240Z,68.10
2017-10-05T00:04:38.433Z,68.20
2017-10-05T00:07:05.889Z,68.20
2017-10-05T00:09:33.330Z,68.30
2017-10-05T00:12:00.781Z,68.10
2017-10-05T00:14:28.218Z,68.30
2017-10-05T00:16:55.648Z,68.40
2017-10-05T00:19:23.082Z,68.30
2017-10-05T00:21:50.508Z,68.30
2017-10-05T00:24:17.950Z,68.30
2017-10-05T00:26:45.396Z,68.30
2017-10-05T00:29:12.831Z,68.30
2017-10-05T00:31:40.257Z,68.40
2017-10-05T00:34:07.680Z,68.40
2017-10-05T00:36:35.117Z,68.40
2017-10-05T00:39:02.549Z,68.40
2017-10-05T00:41:29.983Z,68.30
2017-10-05T00:43:57.409Z,68.30
2017-10-05T00:46:25.617Z,68.40
2017-10-05T00:48:53.040Z,68.40
2017-10-05T00:51:20.482Z,68.50
2017-10-05T00:53:47.916Z,68.40
2017-10-05T00:56:15.350Z,68.30
2017-10-05T00:58:43.544Z,68.40
2017-10-05T01:01:10.968Z,68.40
2017-10-05T01:03:38.405Z,68.30
2017-10-05T01:06:05.843Z,68.40
2017-10-05T01:08:33.282Z,69.20
2017-10-05T01:11:00.704Z,68.50
2017-10-05T01:13:28.153Z,68.50
2017-10-05T01:15:56.353Z,68.40
2017-10-05T01:18:23.777Z,68.50
2017-10-05T01:20:51.216Z,68.50
2017-10-05T01:23:18.640Z,68.50
2017-10-05T01:25:46.067Z,68.50
2017-10-05T01:28:13.496Z,68.60
2017-10-05T01:30:40.932Z,68.50
2017-10-05T01:33:08.358Z,68.60
2017-10-05T01:35:35.816Z,68.70
2017-10-05T01:38:03.220Z,68.70
2017-10-05T01:40:30.670Z,68.70
2017-10-05T01:42:58.105Z,68.70
2017-10-05T01:45:25.550Z,68.60
2017-10-05T01:47:52.986Z,68.70
2017-10-05T01:50:21.184Z,68.80
2017-10-05T01:52:48.615Z,68.70
2017-10-05T01:55:16.819Z,69.40
2017-10-05T01:57:44.255Z,68.60
2017-10-05T02:00:11.697Z,68.80
2017-10-05T02:02:39.124Z,68.80
2017-10-05T02:05:06.566Z,68.70
2017-10-05T02:07:34.000Z,68.90
2017-10-05T02:10:01.445Z,68.90
2017-10-05T02:12:28.868Z,68.90
2017-10-05T02:14:56.313Z,69.00
2017-10-05T02:17:23.749Z,69.10
2017-10-05T02:19:51.184Z,69.20
2017-10-05T02:22:18.617Z,69.20
2017-10-05T02:24:46.062Z,69.40
2017-10-05T02:27:13.497Z,69.30
2017-10-05T02:29:40.944Z,69.30
2017-10-05T02:32:08.376Z,69.40
2017-10-05T02:34:35.817Z,69.70
2017-10-05T02:37:03.249Z,69.80
2017-10-05T02:39:30.677Z,69.90
2017-10-05T02:41:58.868Z,69.90
2017-10-05T02:44:26.321Z,69.90
2017-10-05T02:46:53.781Z,69.90
2017-10-05T02:49:21.223Z,70.00
2017-10-05T02:51:48.656Z,70.00
2017-10-05T02:54:16.864Z,70.00
2017-10-05T02:56:44.297Z,70.00
2017-10-05T02:59:12.512Z,70.20
2017-10-05T03:01:39.941Z,70.20
2017-10-05T03:04:08.164Z,70.20
2017-10-05T03:06:35.596Z,70.10
2017-10-05T03:09:03.037Z,70.20
2017-10-05T03:11:31.244Z,70.30
2017-10-05T03:13:58.672Z,70.30
2017-10-05T03:16:26.892Z,70.40
2017-10-05T03:18:54.312Z,70.40
2017-10-05T03:21:21.754Z,70.50
2017-10-05T03:23:49.193Z,70.50
2017-10-05T03:26:16.629Z,70.40
2017-10-05T03:28:44.056Z,70.60
2017-10-05T03:31:11.503Z,70.50
2017-10-05T03:33:38.936Z,70.50
2017-10-05T03:36:06.397Z,70.40
2017-10-05T03:38:33.827Z,70.50
2017-10-05T03:41:02.037Z,70.50
2017-10-05T03:43:29.456Z,70.50
2017-10-05T03:45:57.659Z,70.40
2017-10-05T03:48:25.084Z,70.40
2017-10-05T03:50:52.534Z,70.40
2017-10-05T03:53:19.972Z,70.40
2017-10-05T03:55:47.420Z,70.30
2017-10-05T03:58:14.849Z,70.20
2017-10-05T04:00:43.052Z,70.40
2017-10-05T04:03:10.486Z,70.00
2017-10-05T04:05:37.921Z,70.00
2017-10-05T04:08:05.353Z,69.80
2017-10-05T04:10:32.802Z,69.70
2017-10-05T04:13:00.229Z,69.60
2017-10-05T04:15:27.661Z,69.50
2017-10-05T04:17:55.088Z,69.50
2017-10-05T04:20:22.537Z,69.30
2017-10-05T04:22:50.732Z,69.00
2017-10-05T04:25:18.168Z,69.00
2017-10-05T04:27:46.371Z,69.30
2017-10-05T04:30:13.818Z,69.30
2017-10-05T04:32:42.009Z,69.10
2017-10-05T04:35:09.440Z,69.10
2017-10-05T04:37:36.888Z,69.00
2017-10-05T04:40:04.368Z,69.10
2017-10-05T04:42:31.788Z,69.10
2017-10-05T04:44:59.216Z,69.20
2017-10-05T04:47:27.415Z,69.00
2017-10-05T04:49:54.849Z,69.00
2017-10-05T04:52:23.062Z,69.00
2017-10-05T04:54:50.490Z,68.90
2017-10-05T04:57:18.700Z,68.80
2017-10-05T04:59:46.145Z,68.70
2017-10-05T05:02:13.591Z,68.90
2017-10-05T05:04:41.781Z,68.90
2017-10-05T05:07:09.237Z,68.90
2017-10-05T05:09:37.428Z,68.80
2017-10-05T05:12:04.877Z,68.80
2017-10-05T05:14:33.069Z,68.80
2017-10-05T05:17:01.279Z,68.80
2017-10-05T05:19:28.705Z,68.80
2017-10-05T05:21:56.921Z,68.80
2017-10-05T05:24:24.352Z,68.70
2017-10-05T05:26:52.549Z,68.70
2017-10-05T05:29:19.972Z,68.80
2017-10-05T05:31:48.250Z,68.30
2017-10-05T05:34:15.672Z,68.90
2017-10-05T05:36:43.117Z,68.90
2017-10-05T05:39:10.550Z,69.00
2017-10-05T05:41:38.759Z,69.40
2017-10-05T05:44:06.192Z,69.30
2017-10-05T05:46:34.389Z,69.50
2017-10-05T05:49:01.820Z,69.50
2017-10-05T05:51:29.261Z,69.70
2017-10-05T05:53:56.704Z,70.60
2017-10-05T05:56:24.148Z,69.70
2017-10-05T05:58:51.580Z,69.70
2017-10-05T06:01:19.791Z,70.00
2017-10-05T06:03:47.228Z,70.00
2017-10-05T06:06:15.428Z,70.10
2017-10-05T06:08:42.857Z,70.00
2017-10-05T06:11:11.078Z,71.30
2017-10-05T06:13:38.500Z,70.30
2017-10-05T06:16:05.942Z,70.70
2017-10-05T06:18:33.381Z,70.50
2017-10-05T06:21:00.821Z,70.60
2017-10-05T06:23:28.263Z,70.30
2017-10-05T06:25:56.457Z,70.80
2017-10-05T06:28:23.901Z,70.60
2017-10-05T06:30:52.093Z,70.50
2017-10-05T06:33:19.528Z,70.40
2017-10-05T06:35:46.962Z,70.90
2017-10-05T06:38:14.405Z,71.20
2017-10-05T06:40:41.837Z,71.00
2017-10-05T06:43:09.280Z,70.90
2017-10-05T06:45:37.476Z,71.10
2017-10-05T06:48:05.689Z,71.20
2017-10-05T06:50:33.120Z,71.20
2017-10-05T06:53:01.329Z,71.20
2017-10-05T06:55:28.761Z,71.20
2017-10-05T06:57:56.969Z,71.10
2017-10-05T07:00:24.404Z,71.10
2017-10-05T07:02:51.845Z,70.80
2017-10-05T07:05:19.271Z,71.20
2017-10-05T07:07:46.711Z,71.00
2017-10-05T07:10:14.141Z,71.40
2017-10-05T07:12:42.353Z,71.60
2017-10-05T07:15:09.781Z,71.60
2017-10-05T07:17:37.995Z,71.80
2017-10-05T07:20:05.421Z,71.80
2017-10-05T07:22:33.635Z,71.70
2017-10-05T07:25:01.060Z,71.70
2017-10-05T07:27:29.259Z,72.10
2017-10-05T07:29:56.688Z,71.70
2017-10-05T07:32:24.124Z,72.20
2017-10-05T07:34:51.564Z,72.10
2017-10-05T07:37:18.996Z,71.80
2017-10-05T07:39:47.184Z,72.50
2017-10-05T07:42:15.401Z,72.60
2017-10-05T07:44:42.835Z,72.60
2017-10-05T07:47:10.276Z,72.40
2017-10-05T07:49:38.481Z,72.80
2017-10-05T07:52:05.920Z,72.70
2017-10-05T07:54:34.120Z,72.80
2017-10-05T07:57:01.558Z,72.80
2017-10-05T07:59:29.770Z,73.20
2017-10-05T08:01:57.220Z,73.10
2017-10-05T08:04:25.404Z,72.70
2017-10-05T08:06:52.848Z,72.80
2017-10-05T08:09:21.041Z,73.70
2017-10-05T08:11:48.485Z,73.70
2017-10-05T08:14:16.694Z,74.30
2017-10-05T08:16:44.112Z,74.30
2017-10-05T08:19:11.560Z,74.10
2017-10-05T08:21:38.996Z,74.50
2017-10-05T08:24:06.444Z,74.50
2017-10-05T08:26:33.865Z,74.70
2017-10-05T08:29:01.317Z,74.50
2017-10-05T08:31:28.736Z,74.90
2017-10-05T08:33:56.184Z,74.60
2017-10-05T08:36:23.616Z,74.60
2017-10-05T08:38:52.052Z,74.70
2017-10-05T08:41:19.492Z,74.70
2017-10-05T08:43:46.930Z,74.70
2017-10-05T08:46:15.125Z,75.00
2017-10-05T08:48:43.337Z,74.90
2017-10-05T08:51:10.761Z,74.90
2017-10-05T08:53:38.956Z,75.10
2017-10-05T08:56:06.385Z,75.00
2017-10-05T08:58:33.823Z,75.70
2017-10-05T09:01:01.256Z,75.30
2017-10-05T09:03:28.701Z,76.20
2017-10-05T09:05:56.896Z,76.70
2017-10-05T09:08:24.351Z,76.60
2017-10-05T09:10:51.776Z,76.20
2017-10-05T09:13:19.221Z,76.00
2017-10-05T09:15:46.662Z,76.20
2017-10-05T09:18:14.092Z,76.40
2017-10-05T09:20:41.517Z,76.20
2017-10-05T09:23:08.965Z,76.40
2017-10-05T09:25:36.401Z,76.20
2017-10-05T09:28:03.840Z,76.00
2017-10-05T09:30:31.269Z,76.10
2017-10-05T09:32:58.708Z,75.80
2017-10-05T09:35:26.145Z,75.90
2017-10-05T09:37:53.585Z,75.80
2017-10-05T09:40:21.781Z,75.60
2017-10-05T09:42:49.228Z,75.70
2017-10-05T09:45:17.485Z,75.90
2017-10-05T09:47:44.928Z,75.70
2017-10-05T09:50:12.353Z,75.60
2017-10-05T09:52:39.792Z,75.80
2017-10-05T09:55:07.977Z,75.90
2017-10-05T09:57:35.413Z,75.90
2017-10-05T10:00:02.853Z,75.90
2017-10-05T10:02:30.283Z,75.70
2017-10-05T10:04:57.724Z,75.80
2017-10-05T10:07:25.913Z,75.80
2017-10-05T10:09:53.349Z,75.80
2017-10-05T10:12:20.774Z,76.00
2017-10-05T10:14:48.208Z,76.10
2017-10-05T10:17:15.644Z,76.90
2017-10-05T10:19:43.853Z,77.20
2017-10-05T10:22:11.276Z,77.10
2017-10-05T10:24:39.499Z,77.90
2017-10-05T10:27:06.914Z,77.90
2017-10-05T10:29:34.349Z,78.90
2017-10-05T10:32:01.781Z,79.10
2017-10-05T10:34:29.229Z,79.60
2017-10-05T10:36:56.656Z,79.80
2017-10-05T10:39:24.092Z,79.20
2017-10-05T10:41:52.300Z,79.50
2017-10-05T10:44:19.748Z,79.60
2017-10-05T10:46:47.173Z,80.70
2017-10-05T10:49:14.619Z,80.70
2017-10-05T10:51:42.044Z,80.40
2017-10-05T10:54:09.484Z,81.20
2017-10-05T10:56:37.688Z,82.40
2017-10-05T10:59:05.125Z,82.90
2017-10-05T11:01:32.563Z,80.70
2017-10-05T11:04:00.009Z,81.40
2017-10-05T11:06:27.465Z,82.00
2017-10-05T11:08:55.665Z,83.40
2017-10-05T11:11:23.194Z,83.40
2017-10-05T11:13:51.394Z,83.70
2017-10-05T11:16:18.822Z,83.10
2017-10-05T11:18:46.257Z,82.20
2017-10-05T11:21:13.681Z,83.00
2017-10-05T11:23:41.123Z,85.40
2017-10-05T11:26:09.316Z,86.00
2017-10-05T11:28:37.533Z,86.00
2017-10-05T11:31:04.973Z,85.90
2017-10-05T11:33:32.412Z,85.10
2017-10-05T11:36:00.620Z,84.00
2017-10-05T11:38:28.077Z,83.90
2017-10-05T11:40:55.497Z,83.80
2017-10-05T11:43:22.933Z,83.30
2017-10-05T11:45:50.374Z,83.30
2017-10-05T11:48:17.801Z,83.00
2017-10-05T11:50:46.014Z,82.80
2017-10-05T11:53:13.440Z,82.60
2017-10-05T11:55:41.655Z,82.60
2017-10-05T11:58:09.089Z,82.60
2017-10-05T12:00:37.296Z,82.30
2017-10-05T12:03:04.734Z,82.30
2017-10-05T12:05:32.936Z,82.30
2017-10-05T12:08:00.365Z,82.20
2017-10-05T12:10:28.606Z,82.20
2017-10-05T12:12:56.001Z,82.10
2017-10-05T12:15:24.207Z,81.60
2017-10-05T12:17:51.638Z,81.50
2017-10-05T12:20:19.072Z,81.60
2017-10-05T12:22:46.506Z,81.50
2017-10-05T12:25:13.948Z,81.20
2017-10-05T12:27:41.385Z,80.90
2017-10-05T12:30:08.822Z,80.60
2017-10-05T12:32:37.022Z,79.70
2017-10-05T12:35:04.468Z,79.60
2017-10-05T12:37:31.902Z,80.10
2017-10-05T12:39:59.345Z,80.10
2017-10-05T12:42:26.772Z,80.00
2017-10-05T12:44:54.214Z,79.10
2017-10-05T12:47:21.645Z,77.90
2017-10-05T12:49:49.094Z,77.40
2017-10-05T12:52:16.521Z,77.50
2017-10-05T12:54:43.956Z,77.30
2017-10-05T12:57:11.395Z,74.90
2017-10-05T12:59:38.829Z,73.30
2017-10-05T13:02:07.027Z,73.70
2017-10-05T13:04:34.465Z,73.70
2017-10-05T13:07:02.663Z,73.30
2017-10-05T13:09:30.120Z,73.50
2017-10-05T13:11:57.549Z,74.40
2017-10-05T13:14:24.977Z,72.40
2017-10-05T13:16:52.408Z,70.90
2017-10-05T13:19:19.841Z,71.00
2017-10-05T13:21:47.280Z,71.20
2017-10-05T13:24:14.713Z,71.50
2017-10-05T13:26:42.153Z,69.60
2017-10-05T13:29:10.344Z,70.20
2017-10-05T13:31:37.785Z,70.20
2017-10-05T13:34:05.208Z,70.10
2017-10-05T13:36:32.649Z,68.70
2017-10-05T13:39:00.075Z,67.00
2017-10-05T13:41:28.283Z,69.30
2017-10-05T13:43:55.712Z,69.30
2017-10-05T13:46:24.909Z,68.50
2017-10-05T13:48:52.333Z,68.20
2017-10-05T13:51:19.777Z,67.00
2017-10-05T13:53:47.208Z,68.20
2017-10-05T13:56:15.408Z,66.40
2017-10-05T13:58:42.833Z,66.40
2017-10-05T14:01:10.275Z,66.60
2017-10-05T14:03:37.706Z,65.90
2017-10-05T14:06:05.157Z,65.30
2017-10-05T14:08:32.592Z,65.80
2017-10-05T14:11:00.788Z,67.00
2017-10-05T14:13:28.222Z,67.00
2017-10-05T14:15:55.656Z,66.10
2017-10-05T14:18:23.089Z,66.10
2017-10-05T14:20:50.533Z,65.90
2017-10-05T14:23:18.741Z,66.40
2017-10-05T14:25:46.178Z,66.40
2017-10-05T14:28:13.604Z,66.00
2017-10-05T14:30:41.045Z,66.60
2017-10-05T14:33:09.237Z,66.80
2017-10-05T14:35:36.676Z,66.80
2017-10-05T14:38:04.134Z,65.90
2017-10-05T14:40:31.605Z,66.30
2017-10-05T14:42:59.049Z,66.40
2017-10-05T14:45:26.503Z,63.10
2017-10-05T14:47:54.040Z,62.30
2017-10-05T14:50:21.525Z,62.00
2017-10-05T14:52:50.201Z,61.20
2017-10-05T14:55:17.647Z,61.20
2017-10-05T14:57:45.069Z,62.30
2017-10-05T15:00:12.501Z,62.60
2017-10-05T15:02:39.942Z,63.60
2017-10-05T15:05:08.531Z,64.20
2017-10-05T15:07:36.726Z,64.30
2017-10-05T15:10:04.916Z,63.50
2017-10-05T15:12:32.349Z,63.60
2017-10-05T15:15:00.561Z,63.30
2017-10-05T15:17:27.992Z,63.30
2017-10-05T15:19:55.422Z,63.50
2017-10-05T15:22:22.869Z,61.00
2017-10-05T15:24:50.317Z,61.70
2017-10-05T15:27:17.745Z,61.50
2017-10-05T15:29:45.958Z,62.70
2017-10-05T15:32:13.407Z,62.70
2017-10-05T15:34:40.837Z,62.60
2017-10-05T15:37:08.264Z,62.80
2017-10-05T15:39:35.705Z,63.70
2017-10-05T15:42:03.151Z,62.20
2017-10-05T15:44:30.607Z,63.00
2017-10-05T15:46:58.796Z,62.60
2017-10-05T15:49:26.231Z,62.50
2017-10-05T15:51:53.662Z,62.70
2017-10-05T15:54:21.088Z,62.90
2017-10-05T15:56:48.521Z,62.10
2017-10-05T15:59:16.716Z,62.40
2017-10-05T16:01:44.921Z,62.80
2017-10-05T16:04:12.355Z,62.80
2017-10-05T16:06:40.561Z,62.40
2017-10-05T16:09:07.984Z,62.40
2017-10-05T16:11:36.177Z,61.90
2017-10-05T16:14:04.378Z,62.50
2017-10-05T16:16:31.816Z,62.30
2017-10-05T16:19:00.038Z,62.60
2017-10-05T16:21:27.483Z,62.60
2017-10-05T16:23:54.917Z,62.80
2017-10-05T16:26:23.129Z,62.60
2017-10-05T16:28:50.556Z,62.50
2017-10-05T16:31:18.757Z,62.20
2017-10-05T16:33:46.206Z,62.10
2017-10-05T16:36:14.396Z,62.90
2017-10-05T16:38:41.834Z,62.80
2017-10-05T16:41:09.277Z,62.90
2017-10-05T16:43:36.725Z,62.90
2017-10-05T16:46:04.188Z,63.00
2017-10-05T16:48:31.629Z,63.00
2017-10-05T16:50:59.059Z,63.00
2017-10-05T16:53:27.252Z,63.50
2017-10-05T16:55:54.688Z,63.50
2017-10-05T16:58:22.137Z,63.80
2017-10-05T17:00:49.596Z,63.90
2017-10-05T17:03:17.025Z,64.00
2017-10-05T17:05:44.452Z,64.10
2017-10-05T17:08:29.222Z,64.30
2017-10-05T17:10:57.417Z,64.40
2017-10-05T17:15:53.272Z,64.60
2017-10-05T17:18:20.717Z,64.80
2017-10-05T17:20:48.160Z,65.00
2017-10-05T17:23:47.174Z,64.90
2017-10-05T17:26:14.595Z,65.20
2017-10-05T17:28:42.041Z,65.20
2017-10-05T17:31:09.485Z,65.20
2017-10-05T17:33:36.909Z,65.20
2017-10-05T17:36:04.341Z,65.20
2017-10-05T17:38:31.768Z,65.10
2017-10-05T17:40:59.209Z,64.80
2017-10-05T17:43:26.632Z,65.00
2017-10-05T17:45:54.838Z,65.40
2017-10-05T17:48:22.265Z,65.20
2017-10-05T17:50:49.701Z,64.90
2017-10-05T17:53:17.136Z,65.00
2017-10-05T17:55:44.584Z,65.20
2017-10-05T17:58:12.014Z,65.40
2017-10-05T18:00:39.442Z,65.40
2017-10-05T18:03:06.872Z,65.50
2017-10-05T18:05:34.308Z,65.70
2017-10-05T18:08:01.724Z,65.80
2017-10-05T18:10:29.157Z,65.90
2017-10-05T18:12:56.601Z,66.70
2017-10-05T18:15:24.809Z,66.80
2017-10-05T18:17:52.267Z,66.00
2017-10-05T18:20:19.705Z,66.10
2017-10-05T18:22:47.932Z,66.30
2017-10-05T18:25:15.453Z,66.30
2017-10-05T18:27:43.650Z,66.40
2017-10-05T18:30:11.080Z,66.40
2017-10-05T18:32:38.538Z,66.50
2017-10-05T18:35:05.968Z,66.60
2017-10-05T18:37:33.392Z,66.70
2017-10-05T18:40:00.825Z,66.80
2017-10-05T18:42:28.250Z,66.80
2017-10-05T18:44:55.681Z,67.00
2017-10-05T18:47:23.121Z,67.10
2017-10-05T18:49:50.597Z,67.10
2017-10-05T18:52:18.805Z,67.60
2017-10-05T18:54:46.289Z,67.60
2017-10-05T18:57:13.728Z,67.50
2017-10-05T18:59:41.156Z,67.60
2017-10-05T19:02:09.370Z,67.80
2017-10-05T19:04:36.788Z,67.80
2017-10-05T19:07:04.232Z,67.80
2017-10-05T19:09:31.673Z,68.30
2017-10-05T19:11:59.134Z,68.60
2017-10-05T19:14:26.571Z,68.50
2017-10-05T19:16:54.007Z,68.70
2017-10-05T19:19:22.213Z,68.80
2017-10-05T19:21:49.678Z,68.80
2017-10-05T19:24:17.902Z,69.20
2017-10-05T19:26:45.334Z,69.10
2017-10-05T19:29:12.783Z,68.90
2017-10-05T19:31:40.225Z,69.20
2017-10-05T19:34:08.434Z,69.20
2017-10-05T19:36:35.870Z,69.20
2017-10-05T19:39:04.106Z,69.40
2017-10-05T19:41:31.537Z,69.40
2017-10-05T19:43:58.972Z,69.50
2017-10-05T19:46:27.182Z,70.20
2017-10-05T19:48:54.610Z,69.40
2017-10-05T19:51:22.826Z,70.40
2017-10-05T19:53:50.253Z,69.50
2017-10-05T19:56:18.469Z,69.50
2017-10-05T19:58:45.895Z,69.50
2017-10-05T20:01:14.097Z,69.60
2017-10-05T20:03:41.530Z,69.50
2017-10-05T20:06:09.770Z,69.80
2017-10-05T20:08:37.202Z,69.90
2017-10-05T20:11:04.642Z,70.20
2017-10-05T20:13:32.855Z,70.80
2017-10-05T20:16:00.830Z,70.00
2017-10-05T20:18:43.150Z,70.10
2017-10-05T20:21:16.230Z,70.20
2017-10-05T20:23:43.672Z,70.20
2017-10-05T20:26:31.828Z,70.40
2017-10-05T20:29:05.002Z,70.50
2017-10-05T20:31:34.998Z,70.50
2017-10-05T20:34:03.211Z,70.30
2017-10-05T20:36:30.672Z,70.30
2017-10-05T20:38:58.097Z,70.30
2017-10-05T20:41:26.301Z,70.50
2017-10-05T20:43:54.481Z,70.40
2017-10-05T20:46:21.914Z,70.40
2017-10-05T20:48:49.353Z,70.50
2017-10-05T20:51:16.795Z,70.40
2017-10-05T20:53:44.262Z,70.40
2017-10-05T20:56:11.689Z,70.40
2017-10-05T20:58:39.170Z,70.40
2017-10-05T21:01:06.610Z,70.40
2017-10-05T21:03:34.062Z,70.50
2017-10-05T21:06:02.274Z,70.60
2017-10-05T21:08:29.706Z,70.60
2017-10-05T21:10:57.918Z,70.60
2017-10-05T21:13:25.358Z,70.60
2017-10-05T21:15:52.805Z,70.60
2017-10-05T21:18:21.011Z,70.80
2017-10-05T21:20:48.479Z,70.60
2017-10-05T21:23:15.905Z,70.60
2017-10-05T21:25:44.114Z,70.50
2017-10-05T21:28:11.569Z,70.50
2017-10-05T21:30:39.765Z,70.50
2017-10-05T21:33:07.269Z,70.50
2017-10-05T21:35:34.705Z,70.50
2017-10-05T21:38:02.154Z,70.60
2017-10-05T21:40:29.586Z,70.60
2017-10-05T21:42:57.795Z,70.80
2017-10-05T21:45:25.230Z,70.80
2017-10-05T21:47:53.449Z,70.70
2017-10-05T21:50:21.672Z,71.40
2017-10-05T21:52:49.107Z,70.60
2017-10-05T21:55:16.554Z,70.80
2017-10-05T21:57:44.174Z,70.80
2017-10-05T22:00:11.641Z,70.80
2017-10-05T22:02:39.837Z,70.80
2017-10-05T22:05:07.282Z,70.80
2017-10-05T22:07:35.477Z,70.80
2017-10-05T22:10:02.922Z,70.80
2017-10-05T22:12:31.125Z,70.80
2017-10-05T22:14:58.582Z,70.80
2017-10-05T22:17:26.017Z,70.70
2017-10-05T22:19:53.457Z,70.70
2017-10-05T22:22:20.901Z,70.80
2017-10-05T22:24:48.343Z,70.70
2017-10-05T22:27:15.782Z,70.80
2017-10-05T22:29:43.990Z,71.00
2017-10-05T22:32:11.448Z,71.00
2017-10-05T22:34:38.882Z,71.10
2017-10-05T22:37:07.094Z,71.90
2017-10-05T22:39:34.533Z,71.20
2017-10-05T22:42:02.738Z,71.10
2017-10-05T22:44:30.177Z,71.10
2017-10-05T22:46:57.617Z,71.20
2017-10-05T22:49:25.058Z,71.20
2017-10-05T22:51:52.489Z,71.20
2017-10-05T22:54:19.929Z,71.10
2017-10-05T22:56:47.367Z,71.20
2017-10-05T22:59:14.822Z,71.20
2017-10-05T23:01:42.271Z,71.20
2017-10-05T23:04:09.710Z,71.20
2017-10-05T23:06:37.162Z,71.10
2017-10-05T23:09:04.606Z,71.10
2017-10-05T23:11:32.054Z,71.10
2017-10-05T23:14:00.260Z,71.10
2017-10-05T23:16:27.697Z,71.00
2017-10-05T23:18:55.897Z,71.20
2017-10-05T23:21:23.333Z,71.10
2017-10-05T23:23:51.547Z,71.00
2017-10-05T23:26:18.981Z,70.90
2017-10-05T23:28:47.193Z,71.20
2017-10-05T23:31:14.637Z,71.10
2017-10-05T23:33:42.086Z,71.20
2017-10-05T23:36:10.285Z,71.20
2017-10-05T23:38:37.728Z,71.00
2017-10-05T23:41:05.931Z,71.10
2017-10-05T23:43:33.375Z,71.10
2017-10-05T23:46:00.811Z,71.10
2017-10-05T23:48:28.249Z,71.00
2017-10-05T23:50:55.686Z,71.10
2017-10-05T23:53:23.135Z,71.10
2017-10-05T23:55:50.582Z,71.10
2017-10-05T23:58:18.782Z,71.10
